createdAt,value
2023-03-14T00:01:13.183Z,55.60
2023-03-14T00:03:40.054Z,55.70
2023-03-14T00:06:07.792Z,57.00
2023-03-14T00:08:34.818Z,55.70
2023-03-14T00:11:14.623Z,56.80
2023-03-14T00:13:41.660Z,57.10
2023-03-14T00:16:13.544Z,56.20
2023-03-14T00:18:41.145Z,56.20
2023-03-14T00:21:09.931Z,55.80
2023-03-14T00:23:38.755Z,55.80
2023-03-14T00:26:08.968Z,57.20
2023-03-14T00:28:36.287Z,55.80
2023-03-14T00:31:08.257Z,56.20
2023-03-14T00:33:35.532Z,55.80
2023-03-14T00:36:10.236Z,55.80
2023-03-14T00:38:38.957Z,55.80
2023-03-14T00:41:26.117Z,56.70
2023-03-14T00:43:53.251Z,56.10
2023-03-14T00:46:20.540Z,56.00
2023-03-14T00:48:47.460Z,57.10
2023-03-14T00:51:15.926Z,56.70
2023-03-14T00:53:44.780Z,56.00
2023-03-14T00:56:13.169Z,57.40
2023-03-14T00:58:41.314Z,56.50
2023-03-14T01:01:11.565Z,56.40
2023-03-14T01:03:38.419Z,55.90
2023-03-14T01:06:16.213Z,56.90
2023-03-14T01:08:44.645Z,55.90
2023-03-14T01:11:14.476Z,57.10
2023-03-14T01:13:41.652Z,55.90
2023-03-14T01:16:10.120Z,56.70
2023-03-14T01:18:38.415Z,56.00
2023-03-14T01:21:12.213Z,56.60
2023-03-14T01:23:38.981Z,56.00
2023-03-14T01:26:08.842Z,56.10
2023-03-14T01:28:35.627Z,56.10
2023-03-14T01:31:07.729Z,56.60
2023-03-14T01:33:34.819Z,56.30
2023-03-14T01:36:03.300Z,56.90
2023-03-14T01:38:31.162Z,56.20
2023-03-14T01:40:58.901Z,56.20
2023-03-14T01:43:26.235Z,56.40
2023-03-14T01:46:05.189Z,57.70
2023-03-14T01:48:36.361Z,56.30
2023-03-14T01:51:05.348Z,56.30
2023-03-14T01:53:32.217Z,56.30
2023-03-14T01:55:58.934Z,56.30
2023-03-14T01:58:29.701Z,56.30
2023-03-14T02:00:59.569Z,57.40
2023-03-14T02:03:30.197Z,56.50
2023-03-14T02:06:05.581Z,56.50
2023-03-14T02:08:34.147Z,56.40
2023-03-14T02:11:05.451Z,56.80
2023-03-14T02:13:45.946Z,56.70
2023-03-14T02:16:36.107Z,56.40
2023-03-14T02:19:33.461Z,56.60
2023-03-14T02:22:23.301Z,56.40
2023-03-14T02:25:28.166Z,56.40
2023-03-14T02:27:55.223Z,56.40
2023-03-14T02:30:28.210Z,56.90
2023-03-14T02:33:07.507Z,57.40
2023-03-14T02:35:43.474Z,56.40
2023-03-14T02:38:16.078Z,57.20
2023-03-14T02:40:45.668Z,56.50
2023-03-14T02:43:12.625Z,56.60
2023-03-14T02:45:49.061Z,56.60
2023-03-14T02:48:31.950Z,56.60
2023-03-14T02:51:00.969Z,57.30
2023-03-14T02:53:34.090Z,57.20
2023-03-14T02:56:06.439Z,56.60
2023-03-14T02:58:36.456Z,56.60
2023-03-14T03:01:12.119Z,57.60
2023-03-14T03:03:39.004Z,56.80
2023-03-14T03:06:06.105Z,57.00
2023-03-14T03:08:33.261Z,56.70
2023-03-14T03:11:00.784Z,57.70
2023-03-14T03:13:30.063Z,57.40
2023-03-14T03:15:58.129Z,58.30
2023-03-14T03:18:24.902Z,57.80
2023-03-14T03:20:51.618Z,57.90
2023-03-14T03:23:18.505Z,58.00
2023-03-14T03:25:50.556Z,57.00
2023-03-14T03:28:17.459Z,56.80
2023-03-14T03:30:45.019Z,57.60
2023-03-14T03:33:13.058Z,56.80
2023-03-14T03:35:47.785Z,57.90
2023-03-14T03:38:18.260Z,56.80
2023-03-14T03:40:46.522Z,56.90
2023-03-14T03:43:13.336Z,56.90
2023-03-14T03:45:43.117Z,56.90
2023-03-14T03:48:09.988Z,57.40
2023-03-14T03:50:36.810Z,57.20
2023-03-14T03:53:03.969Z,57.70
2023-03-14T03:55:30.801Z,57.00
2023-03-14T03:57:57.602Z,57.10
2023-03-14T04:00:24.660Z,57.20
2023-03-14T04:02:51.444Z,57.50
2023-03-14T04:05:19.364Z,57.90
2023-03-14T04:07:55.655Z,57.40
2023-03-14T04:10:25.942Z,57.30
2023-03-14T04:13:05.249Z,57.20
2023-03-14T04:15:33.741Z,58.00
2023-03-14T04:18:05.205Z,57.90
2023-03-14T04:20:35.765Z,57.10
2023-03-14T04:23:03.550Z,57.10
2023-03-14T04:25:30.373Z,58.10
2023-03-14T04:27:58.901Z,58.60
2023-03-14T04:30:29.268Z,58.20
2023-03-14T04:32:59.392Z,57.40
2023-03-14T04:35:28.061Z,57.30
2023-03-14T04:38:00.070Z,57.40
2023-03-14T04:40:27.480Z,57.30
2023-03-14T04:42:59.228Z,57.60
2023-03-14T04:45:26.002Z,58.20
2023-03-14T04:47:52.696Z,57.90
2023-03-14T04:50:20.521Z,57.40
2023-03-14T04:52:48.157Z,57.30
2023-03-14T04:55:15.744Z,58.10
2023-03-14T04:57:42.539Z,57.30
2023-03-14T05:00:11.216Z,57.70
2023-03-14T05:02:48.132Z,57.30
2023-03-14T05:05:24.137Z,57.70
2023-03-14T05:08:04.282Z,57.30
2023-03-14T05:10:40.531Z,57.30
2023-03-14T05:13:15.360Z,57.60
2023-03-14T05:16:08.837Z,57.40
2023-03-14T05:18:54.332Z,57.30
2023-03-14T05:21:40.636Z,58.00
2023-03-14T05:24:16.777Z,57.30
2023-03-14T05:26:55.373Z,57.30
2023-03-14T05:29:40.190Z,57.50
2023-03-14T05:32:25.277Z,57.60
2023-03-14T05:35:10.687Z,57.40
2023-03-14T05:37:49.043Z,57.30
2023-03-14T05:40:18.914Z,57.10
2023-03-14T05:43:04.234Z,57.10
2023-03-14T05:45:53.668Z,57.10
2023-03-14T05:48:39.246Z,57.20
2023-03-14T05:51:20.161Z,57.10
2023-03-14T05:54:00.260Z,57.10
2023-03-14T05:56:45.652Z,57.10
2023-03-14T05:59:32.617Z,57.60
2023-03-14T06:02:12.711Z,57.20
2023-03-14T06:04:53.708Z,57.00
2023-03-14T06:07:20.546Z,57.20
2023-03-14T06:09:47.837Z,57.00
2023-03-14T06:12:18.282Z,57.80
2023-03-14T06:14:46.464Z,57.10
2023-03-14T06:17:13.559Z,57.00
2023-03-14T06:19:50.596Z,57.80
2023-03-14T06:22:17.418Z,57.00
2023-03-14T06:24:44.448Z,57.70
2023-03-14T06:27:11.196Z,57.60
2023-03-14T06:29:38.141Z,57.50
2023-03-14T06:32:06.081Z,56.80
2023-03-14T06:34:32.943Z,56.80
2023-03-14T06:36:59.788Z,57.90
2023-03-14T06:39:27.161Z,57.60
2023-03-14T06:42:02.448Z,56.80
2023-03-14T06:44:29.368Z,56.50
2023-03-14T06:46:56.185Z,56.40
2023-03-14T06:49:23.377Z,56.20
2023-03-14T06:51:53.292Z,56.20
2023-03-14T06:54:20.090Z,56.10
2023-03-14T06:56:47.687Z,57.00
2023-03-14T06:59:14.818Z,57.30
2023-03-14T07:01:42.623Z,56.00
2023-03-14T07:04:11.899Z,56.80
2023-03-14T07:06:45.159Z,55.90
2023-03-14T07:09:12.671Z,55.90
2023-03-14T07:11:43.843Z,56.50
2023-03-14T07:14:10.853Z,55.90
2023-03-14T07:16:37.724Z,56.10
2023-03-14T07:19:04.508Z,57.20
2023-03-14T07:21:33.642Z,56.60
2023-03-14T07:24:00.537Z,56.10
2023-03-14T07:26:27.460Z,56.10
2023-03-14T07:28:54.435Z,56.70
2023-03-14T07:31:22.669Z,56.50
2023-03-14T07:33:49.641Z,56.60
2023-03-14T07:36:17.677Z,56.20
2023-03-14T07:38:45.748Z,57.00
2023-03-14T07:41:34.682Z,57.80
2023-03-14T07:44:40.166Z,57.40
2023-03-14T07:47:07.052Z,57.80
2023-03-14T07:49:33.734Z,58.30
2023-03-14T07:52:00.435Z,58.40
2023-03-14T07:54:27.313Z,57.50
2023-03-14T07:56:54.121Z,57.70
2023-03-14T07:59:21.646Z,57.70
2023-03-14T08:01:48.523Z,58.50
2023-03-14T08:04:15.322Z,58.30
2023-03-14T08:06:42.074Z,59.30
2023-03-14T08:09:08.829Z,59.20
2023-03-14T08:11:35.579Z,59.40
2023-03-14T08:14:02.371Z,58.30
2023-03-14T08:16:29.385Z,59.50
2023-03-14T08:18:57.068Z,59.20
2023-03-14T08:21:23.844Z,59.30
2023-03-14T08:23:50.606Z,58.50
2023-03-14T08:26:17.326Z,58.30
2023-03-14T08:28:43.986Z,58.90
2023-03-14T08:31:11.204Z,58.70
2023-03-14T08:33:38.156Z,58.50
2023-03-14T08:36:05.668Z,58.00
2023-03-14T08:38:34.375Z,57.50
2023-03-14T08:41:02.409Z,58.60
2023-03-14T08:43:29.908Z,57.90
2023-03-14T08:46:01.303Z,58.10
2023-03-14T08:48:30.194Z,57.70
2023-03-14T08:51:04.535Z,57.70
2023-03-14T08:53:31.331Z,57.80
2023-03-14T08:55:58.472Z,58.30
2023-03-14T08:58:25.549Z,58.30
2023-03-14T09:00:52.550Z,56.90
2023-03-14T09:03:19.440Z,56.90
2023-03-14T09:05:46.200Z,56.50
2023-03-14T09:08:13.021Z,57.00
2023-03-14T09:10:39.743Z,57.40
2023-03-14T09:13:06.521Z,57.10
2023-03-14T09:15:33.888Z,56.60
2023-03-14T09:18:00.621Z,56.80
2023-03-14T09:20:27.481Z,57.50
2023-03-14T09:22:54.524Z,57.70
2023-03-14T09:25:21.309Z,57.10
2023-03-14T09:27:48.078Z,56.90
2023-03-14T09:30:15.023Z,57.90
2023-03-14T09:32:41.812Z,56.80
2023-03-14T09:35:09.084Z,56.70
2023-03-14T09:37:35.912Z,55.80
2023-03-14T09:40:10.269Z,56.50
2023-03-14T09:42:40.156Z,55.80
2023-03-14T09:45:12.765Z,56.40
2023-03-14T09:47:49.329Z,55.60
2023-03-14T09:50:24.616Z,55.50
2023-03-14T09:52:57.914Z,55.50
2023-03-14T09:55:24.698Z,55.50
2023-03-14T09:57:57.488Z,55.40
2023-03-14T10:00:29.035Z,55.30
2023-03-14T10:03:05.577Z,55.90
2023-03-14T10:05:32.461Z,56.10
2023-03-14T10:07:59.177Z,55.60
2023-03-14T10:10:27.284Z,55.10
2023-03-14T10:13:16.659Z,55.10
2023-03-14T10:16:08.325Z,54.90
2023-03-14T10:18:35.564Z,54.90
2023-03-14T10:21:28.267Z,54.80
2023-03-14T10:23:55.029Z,54.70
2023-03-14T10:26:28.472Z,55.80
2023-03-14T10:29:04.811Z,55.40
2023-03-14T10:31:49.108Z,54.60
2023-03-14T10:34:27.276Z,55.20
2023-03-14T10:36:56.337Z,54.50
2023-03-14T10:39:44.812Z,55.80
2023-03-14T10:42:30.800Z,54.40
2023-03-14T10:45:01.335Z,54.40
2023-03-14T10:47:29.494Z,55.00
2023-03-14T10:49:57.640Z,54.60
2023-03-14T10:52:46.040Z,54.40
2023-03-14T10:55:15.757Z,54.30
2023-03-14T10:57:43.188Z,54.30
2023-03-14T11:00:17.931Z,54.40
2023-03-14T11:02:47.790Z,54.20
2023-03-14T11:05:25.076Z,54.30
2023-03-14T11:07:57.688Z,54.20
2023-03-14T11:10:46.269Z,54.50
2023-03-14T11:13:16.860Z,55.10
2023-03-14T11:15:49.565Z,54.90
2023-03-14T11:18:34.886Z,54.30
2023-03-14T11:21:10.697Z,54.10
2023-03-14T11:23:42.130Z,54.10
2023-03-14T11:26:30.543Z,54.10
2023-03-14T11:29:15.665Z,54.10
2023-03-14T11:31:45.475Z,54.10
2023-03-14T11:34:41.369Z,54.10
2023-03-14T11:37:17.668Z,54.00
2023-03-14T11:40:02.809Z,54.70
2023-03-14T11:42:30.464Z,54.80
2023-03-14T11:45:00.457Z,54.60
2023-03-14T11:47:32.386Z,54.50
2023-03-14T11:50:15.933Z,53.90
2023-03-14T11:52:49.612Z,54.20
2023-03-14T11:55:32.114Z,53.80
2023-03-14T11:58:11.725Z,53.80
2023-03-14T12:00:41.154Z,53.80
2023-03-14T12:03:20.658Z,53.90
2023-03-14T12:06:20.630Z,53.90
2023-03-14T12:08:59.808Z,53.70
2023-03-14T12:11:49.747Z,53.70
2023-03-14T12:14:24.780Z,53.70
2023-03-14T12:16:59.479Z,54.40
2023-03-14T12:19:30.001Z,53.70
2023-03-14T12:22:28.282Z,54.30
2023-03-14T12:25:01.593Z,53.70
2023-03-14T12:27:46.181Z,54.50
2023-03-14T12:30:42.570Z,53.70
2023-03-14T12:33:19.454Z,53.60
2023-03-14T12:35:49.130Z,53.70
2023-03-14T12:38:24.558Z,54.10
2023-03-14T12:41:16.252Z,53.60
2023-03-14T12:43:43.202Z,53.50
2023-03-14T12:46:19.271Z,53.60
2023-03-14T12:48:54.513Z,53.50
2023-03-14T12:51:39.375Z,53.50
2023-03-14T12:54:21.094Z,53.50
2023-03-14T12:56:59.817Z,53.50
2023-03-14T12:59:38.528Z,53.40
2023-03-14T13:02:08.221Z,53.50
2023-03-14T13:04:40.354Z,53.40
2023-03-14T13:07:13.497Z,53.40
2023-03-14T13:09:56.626Z,53.30
2023-03-14T13:12:38.144Z,53.70
2023-03-14T13:15:17.913Z,54.30
2023-03-14T13:17:47.554Z,54.30
2023-03-14T13:20:27.509Z,53.50
2023-03-14T13:22:54.740Z,53.20
2023-03-14T13:25:23.602Z,54.10
2023-03-14T13:27:56.558Z,53.60
2023-03-14T13:30:28.309Z,54.70
2023-03-14T13:32:56.320Z,53.60
2023-03-14T13:35:31.013Z,53.90
2023-03-14T13:38:11.101Z,54.00
2023-03-14T13:40:39.901Z,53.00
2023-03-14T13:43:24.576Z,53.20
2023-03-14T13:45:53.036Z,52.90
2023-03-14T13:48:20.520Z,53.80
2023-03-14T13:50:54.168Z,53.70
2023-03-14T13:53:21.289Z,53.70
2023-03-14T13:55:48.430Z,53.30
2023-03-14T13:58:42.148Z,52.80
2023-03-14T14:01:25.959Z,52.70
2023-03-14T14:03:55.469Z,54.20
2023-03-14T14:06:31.710Z,53.90
2023-03-14T14:09:03.824Z,52.70
2023-03-14T14:11:51.072Z,53.00
2023-03-14T14:14:37.431Z,52.70
2023-03-14T14:17:09.304Z,52.80
2023-03-14T14:19:37.377Z,52.60
2023-03-14T14:22:05.128Z,53.90
2023-03-14T14:24:34.008Z,54.00
2023-03-14T14:27:10.339Z,52.60
2023-03-14T14:29:37.549Z,52.50
2023-03-14T14:32:14.992Z,52.60
2023-03-14T14:34:52.779Z,52.40
2023-03-14T14:37:32.316Z,52.40
2023-03-14T14:40:02.223Z,52.70
2023-03-14T14:42:32.117Z,53.50
2023-03-14T14:45:00.725Z,52.30
2023-03-14T14:47:29.545Z,53.70
2023-03-14T14:50:01.210Z,53.60
2023-03-14T14:52:45.263Z,52.70
2023-03-14T14:55:20.663Z,52.10
2023-03-14T14:57:53.352Z,52.10
2023-03-14T15:00:23.136Z,52.40
2023-03-14T15:02:54.898Z,51.90
2023-03-14T15:05:24.677Z,51.90
2023-03-14T15:07:52.075Z,52.50
2023-03-14T15:10:24.003Z,52.30
2023-03-14T15:12:50.912Z,51.80
2023-03-14T15:15:18.583Z,51.90
2023-03-14T15:17:45.447Z,51.80
2023-03-14T15:20:15.324Z,51.90
2023-03-14T15:22:42.408Z,51.80
2023-03-14T15:25:18.641Z,51.80
2023-03-14T15:27:49.227Z,51.80
2023-03-14T15:30:16.956Z,51.80
2023-03-14T15:32:43.651Z,51.70
2023-03-14T15:35:10.782Z,52.20
2023-03-14T15:37:37.730Z,51.70
2023-03-14T15:40:12.684Z,52.40
2023-03-14T15:42:39.497Z,51.40
2023-03-14T15:45:06.892Z,51.50
2023-03-14T15:47:33.606Z,51.20
2023-03-14T15:50:00.431Z,52.00
2023-03-14T15:52:27.311Z,52.40
2023-03-14T15:54:54.016Z,51.70
2023-03-14T15:57:20.804Z,51.70
2023-03-14T15:59:47.789Z,51.40
2023-03-14T16:02:14.524Z,51.30
2023-03-14T16:04:41.394Z,51.30
2023-03-14T16:07:08.457Z,52.00
2023-03-14T16:09:35.169Z,51.30
2023-03-14T16:12:01.923Z,52.40
2023-03-14T16:14:28.735Z,52.40
2023-03-14T16:16:55.961Z,52.30
2023-03-14T16:19:22.792Z,51.90
2023-03-14T16:21:51.729Z,51.10
2023-03-14T16:24:19.322Z,51.20
2023-03-14T16:26:46.780Z,51.10
2023-03-14T16:29:13.505Z,51.90
2023-03-14T16:31:42.892Z,51.00
2023-03-14T16:34:10.329Z,51.90
2023-03-14T16:36:37.048Z,51.20
2023-03-14T16:39:04.636Z,51.70
2023-03-14T16:41:31.702Z,51.00
2023-03-14T16:43:59.904Z,51.70
2023-03-14T16:46:30.511Z,51.80
2023-03-14T16:48:57.582Z,50.80
2023-03-14T16:51:24.867Z,50.80
2023-03-14T16:53:51.687Z,50.70
2023-03-14T16:56:18.611Z,50.90
2023-03-14T16:58:45.832Z,50.60
2023-03-14T17:01:14.446Z,50.60
2023-03-14T17:03:43.719Z,50.60
2023-03-14T17:06:15.916Z,51.40
2023-03-14T17:08:43.486Z,51.30
2023-03-14T17:11:10.946Z,50.50
2023-03-14T17:13:38.302Z,50.80
2023-03-14T17:16:05.379Z,50.50
2023-03-14T17:18:32.398Z,50.50
2023-03-14T17:20:59.954Z,52.10
2023-03-14T17:23:28.353Z,51.40
2023-03-14T17:25:55.803Z,51.20
2023-03-14T17:28:24.462Z,51.30
2023-03-14T17:31:00.783Z,51.60
2023-03-14T17:33:27.570Z,50.90
2023-03-14T17:35:54.378Z,50.90
2023-03-14T17:38:21.201Z,51.70
2023-03-14T17:40:49.015Z,51.20
2023-03-14T17:43:16.385Z,50.50
2023-03-14T17:45:43.523Z,50.50
2023-03-14T17:48:10.845Z,50.90
2023-03-14T17:50:37.872Z,50.90
2023-03-14T17:53:05.191Z,51.60
2023-03-14T17:55:31.841Z,51.70
2023-03-14T17:57:58.684Z,50.70
2023-03-14T18:00:25.630Z,50.90
2023-03-14T18:02:52.877Z,50.50
2023-03-14T18:05:19.645Z,51.00
2023-03-14T18:07:46.436Z,51.40
2023-03-14T18:10:14.259Z,50.70
2023-03-14T18:12:41.015Z,50.50
2023-03-14T18:15:08.357Z,51.30
2023-03-14T18:17:35.092Z,50.60
2023-03-14T18:20:01.860Z,50.60
2023-03-14T18:22:28.591Z,50.50
2023-03-14T18:24:55.474Z,51.20
2023-03-14T18:27:22.281Z,50.90
2023-03-14T18:29:49.074Z,51.60
2023-03-14T18:32:16.869Z,50.60
2023-03-14T18:34:43.636Z,50.60
2023-03-14T18:37:10.410Z,50.60
2023-03-14T18:39:37.184Z,50.70
2023-03-14T18:42:04.115Z,51.70
2023-03-14T18:44:30.873Z,50.60
2023-03-14T18:46:57.628Z,51.40
2023-03-14T18:49:24.448Z,50.80
2023-03-14T18:51:51.461Z,50.60
2023-03-14T18:54:18.273Z,50.60
2023-03-14T18:56:45.050Z,51.00
2023-03-14T18:59:12.628Z,51.40
2023-03-14T19:01:39.573Z,51.30
2023-03-14T19:04:09.480Z,50.70
2023-03-14T19:06:38.000Z,51.20
2023-03-14T19:09:06.063Z,50.50
2023-03-14T19:11:32.929Z,50.60
2023-03-14T19:14:00.134Z,50.80
2023-03-14T19:16:27.654Z,50.50
2023-03-14T19:18:55.414Z,50.40
2023-03-14T19:21:32.237Z,51.20
2023-03-14T19:23:59.476Z,50.40
2023-03-14T19:26:28.603Z,50.90
2023-03-14T19:28:55.564Z,50.40
2023-03-14T19:31:22.294Z,51.30
2023-03-14T19:33:49.044Z,51.60
2023-03-14T19:36:23.895Z,50.70
2023-03-14T19:38:51.928Z,50.80
2023-03-14T19:41:18.972Z,50.90
2023-03-14T19:43:45.748Z,50.70
2023-03-14T19:46:12.534Z,50.40
2023-03-14T19:48:39.547Z,51.30
2023-03-14T19:51:06.785Z,50.40
2023-03-14T19:53:35.246Z,50.90
2023-03-14T19:56:02.128Z,50.40
2023-03-14T19:58:28.858Z,50.70
2023-03-14T20:00:56.841Z,51.10
2023-03-14T20:03:24.226Z,50.90
2023-03-14T20:05:53.050Z,51.10
2023-03-14T20:08:23.564Z,50.60
2023-03-14T20:10:50.585Z,50.90
2023-03-14T20:13:21.946Z,51.30
2023-03-14T20:15:50.057Z,50.20
2023-03-14T20:18:16.948Z,50.20
2023-03-14T20:20:43.689Z,51.20
2023-03-14T20:23:10.584Z,50.40
2023-03-14T20:25:37.667Z,50.40
2023-03-14T20:28:05.069Z,51.70
2023-03-14T20:30:32.408Z,50.20
2023-03-14T20:32:59.364Z,50.20
2023-03-14T20:35:26.223Z,50.10
2023-03-14T20:37:55.954Z,51.00
2023-03-14T20:40:24.182Z,50.90
2023-03-14T20:42:51.633Z,50.10
2023-03-14T20:45:18.805Z,50.10
2023-03-14T20:47:45.674Z,50.60
2023-03-14T20:50:13.085Z,50.20
2023-03-14T20:52:39.998Z,50.10
2023-03-14T20:55:07.164Z,50.20
2023-03-14T20:57:33.801Z,50.00
2023-03-14T21:00:00.702Z,50.10
2023-03-14T21:02:27.418Z,50.00
2023-03-14T21:04:57.526Z,50.60
2023-03-14T21:07:24.315Z,50.10
2023-03-14T21:09:51.110Z,50.10
2023-03-14T21:12:17.843Z,50.00
2023-03-14T21:14:44.725Z,50.50
2023-03-14T21:17:11.462Z,49.90
2023-03-14T21:19:38.136Z,50.80
2023-03-14T21:22:05.809Z,51.20
2023-03-14T21:24:34.271Z,50.50
2023-03-14T21:27:00.994Z,49.90
2023-03-14T21:29:28.148Z,50.90
2023-03-14T21:31:54.941Z,50.10
2023-03-14T21:34:26.452Z,50.60
2023-03-14T21:36:54.261Z,49.90
2023-03-14T21:39:21.414Z,50.10
2023-03-14T21:41:48.434Z,50.30
2023-03-14T21:44:16.150Z,50.90
2023-03-14T21:46:45.833Z,50.00
2023-03-14T21:49:16.934Z,50.10
2023-03-14T21:51:47.204Z,50.10
2023-03-14T21:54:15.323Z,50.20
2023-03-14T21:56:43.489Z,50.80
2023-03-14T21:59:10.863Z,50.90
2023-03-14T22:01:37.827Z,50.20
2023-03-14T22:04:04.674Z,50.80
2023-03-14T22:06:31.549Z,50.10
2023-03-14T22:08:58.376Z,50.50
2023-03-14T22:11:25.394Z,50.10
2023-03-14T22:13:52.141Z,50.20
2023-03-14T22:16:18.936Z,50.50
2023-03-14T22:18:45.802Z,50.50
2023-03-14T22:21:12.645Z,50.60
2023-03-14T22:23:39.453Z,50.30
2023-03-14T22:26:06.237Z,50.30
2023-03-14T22:28:33.003Z,51.30
2023-03-14T22:31:01.525Z,50.60
2023-03-14T22:33:31.196Z,50.50
2023-03-14T22:35:58.139Z,51.30
2023-03-14T22:38:25.332Z,51.00
2023-03-14T22:40:52.315Z,51.50
2023-03-14T22:43:19.174Z,50.30
2023-03-14T22:45:46.168Z,51.00
2023-03-14T22:48:12.920Z,50.60
2023-03-14T22:50:40.428Z,50.60
2023-03-14T22:53:07.267Z,50.40
2023-03-14T22:55:34.038Z,50.80
2023-03-14T22:58:01.024Z,50.50
2023-03-14T23:00:29.280Z,50.90
2023-03-14T23:02:56.095Z,51.00
2023-03-14T23:05:23.101Z,50.80
2023-03-14T23:07:49.813Z,50.60
2023-03-14T23:10:17.019Z,50.60
2023-03-14T23:12:45.220Z,50.70
2023-03-14T23:15:18.369Z,51.60
2023-03-14T23:17:45.389Z,50.70
2023-03-14T23:20:13.033Z,50.80
2023-03-14T23:22:40.062Z,51.00
2023-03-14T23:25:07.498Z,50.80
2023-03-14T23:27:34.464Z,50.80
2023-03-14T23:30:01.473Z,51.10
2023-03-14T23:32:28.409Z,50.90
2023-03-14T23:34:55.503Z,51.50
2023-03-14T23:37:24.500Z,51.10
2023-03-14T23:39:51.675Z,50.90
2023-03-14T23:42:18.606Z,51.60
2023-03-14T23:44:45.408Z,51.80
2023-03-14T23:47:12.191Z,51.00
2023-03-14T23:49:39.008Z,52.40
2023-03-14T23:52:05.708Z,51.20
2023-03-14T23:54:32.441Z,51.90
2023-03-14T23:56:59.397Z,52.00
2023-03-14T23:59:26.273Z,51.10
